createdAt,value
2023-04-23T00:00:46.509Z,24.12
2023-04-23T00:01:46.508Z,24.11
2023-04-23T00:02:46.581Z,24.11
2023-04-23T00:03:46.579Z,24.11
2023-04-23T00:04:46.995Z,24.10
2023-04-23T00:05:46.500Z,24.10
2023-04-23T00:06:46.485Z,24.09
2023-04-23T00:07:46.504Z,24.09
2023-04-23T00:08:46.476Z,24.09
2023-04-23T00:09:46.494Z,24.08
2023-04-23T00:10:46.473Z,24.08
2023-04-23T00:11:46.484Z,24.08
2023-04-23T00:12:46.497Z,24.08
2023-04-23T00:13:46.491Z,24.08
2023-04-23T00:14:46.501Z,24.08
2023-04-23T00:15:46.484Z,24.07
2023-04-23T00:16:46.493Z,24.07
2023-04-23T00:17:46.557Z,24.08
2023-04-23T00:18:46.494Z,24.07
2023-04-23T00:19:46.514Z,24.06
2023-04-23T00:20:46.572Z,24.06
2023-04-23T00:21:46.626Z,24.06
2023-04-23T00:22:46.692Z,24.06
2023-04-23T00:23:46.724Z,24.05
2023-04-23T00:24:46.789Z,24.05
2023-04-23T00:25:46.879Z,24.05
2023-04-23T00:26:46.858Z,24.04
2023-04-23T00:27:46.835Z,24.05
2023-04-23T00:28:46.848Z,24.04
2023-04-23T00:29:46.849Z,24.04
2023-04-23T00:30:46.830Z,24.03
2023-04-23T00:31:46.839Z,24.03
2023-04-23T00:32:46.899Z,24.04
2023-04-23T00:33:46.821Z,24.04
2023-04-23T00:34:46.829Z,24.02
2023-04-23T00:35:46.817Z,24.02
2023-04-23T00:36:46.826Z,24.02
2023-04-23T00:37:46.830Z,24.02
2023-04-23T00:38:46.812Z,24.02
2023-04-23T00:39:46.827Z,24.02
2023-04-23T00:40:46.835Z,24.02
2023-04-23T00:41:46.885Z,24.02
2023-04-23T00:42:46.929Z,24.02
2023-04-23T00:43:46.963Z,24.02
2023-04-23T00:44:47.014Z,24.01
2023-04-23T00:45:47.138Z,24.01
2023-04-23T00:46:47.118Z,24.00
2023-04-23T00:47:47.205Z,24.00
2023-04-23T00:48:47.219Z,24.00
2023-04-23T00:49:47.259Z,23.99
2023-04-23T00:50:47.324Z,23.99
2023-04-23T00:51:47.367Z,23.98
2023-04-23T00:52:47.415Z,23.98
2023-04-23T00:53:47.459Z,23.98
2023-04-23T00:54:47.525Z,23.98
2023-04-23T00:55:47.561Z,23.98
2023-04-23T00:56:47.641Z,23.98
2023-04-23T00:57:47.666Z,23.98
2023-04-23T00:58:47.662Z,23.98
2023-04-23T00:59:47.660Z,23.97
2023-04-23T01:00:47.676Z,23.97
2023-04-23T01:01:47.643Z,23.96
2023-04-23T01:02:47.783Z,23.96
2023-04-23T01:03:47.831Z,23.96
2023-04-23T01:04:47.655Z,23.96
2023-04-23T01:05:47.651Z,23.96
2023-04-23T01:06:47.682Z,23.94
2023-04-23T01:07:47.669Z,23.95
2023-04-23T01:08:47.661Z,23.94
2023-04-23T01:09:47.643Z,23.95
2023-04-23T01:10:47.660Z,23.94
2023-04-23T01:11:47.635Z,23.95
2023-04-23T01:12:47.635Z,23.94
2023-04-23T01:13:47.665Z,23.94
2023-04-23T01:14:47.649Z,23.94
2023-04-23T01:15:47.655Z,23.94
2023-04-23T01:16:47.739Z,23.93
2023-04-23T01:17:47.722Z,23.94
2023-04-23T01:18:47.660Z,23.93
2023-04-23T01:19:47.718Z,23.94
2023-04-23T01:20:47.768Z,23.92
2023-04-23T01:21:47.818Z,23.93
2023-04-23T01:22:47.891Z,23.92
2023-04-23T01:23:47.873Z,23.93
2023-04-23T01:24:47.885Z,23.92
2023-04-23T01:25:47.889Z,23.92
2023-04-23T01:26:47.878Z,23.92
2023-04-23T01:27:47.925Z,23.92
2023-04-23T01:28:47.910Z,23.92
2023-04-23T01:29:47.920Z,23.92
2023-04-23T01:30:47.960Z,23.91
2023-04-23T01:31:47.920Z,23.92
2023-04-23T01:32:47.969Z,23.90
2023-04-23T01:33:47.973Z,23.91
2023-04-23T01:34:47.958Z,23.91
2023-04-23T01:35:47.949Z,23.91
2023-04-23T01:36:47.962Z,23.90
2023-04-23T01:37:47.970Z,23.90
2023-04-23T01:38:48.013Z,23.90
2023-04-23T01:39:48.055Z,23.91
2023-04-23T01:40:48.042Z,23.91
2023-04-23T01:41:48.047Z,23.90
2023-04-23T01:42:48.047Z,23.90
2023-04-23T01:43:48.094Z,23.90
2023-04-23T01:44:48.072Z,23.89
2023-04-23T01:45:48.098Z,23.89
2023-04-23T01:46:48.084Z,23.88
2023-04-23T01:47:48.162Z,23.89
2023-04-23T01:48:48.090Z,23.88
2023-04-23T01:49:48.102Z,23.88
2023-04-23T01:50:48.184Z,23.88
2023-04-23T01:51:48.221Z,23.88
2023-04-23T01:52:48.285Z,23.88
2023-04-23T01:53:48.324Z,23.88
2023-04-23T01:54:48.379Z,23.88
2023-04-23T01:55:48.369Z,23.88
2023-04-23T01:56:48.414Z,23.88
2023-04-23T01:57:48.485Z,23.87
2023-04-23T01:58:48.551Z,23.87
2023-04-23T01:59:48.605Z,23.87
2023-04-23T02:00:48.632Z,23.87
2023-04-23T02:01:48.711Z,23.87
2023-04-23T02:02:48.744Z,23.87
2023-04-23T02:03:48.728Z,23.87
2023-04-23T02:04:48.676Z,23.87
2023-04-23T02:05:48.690Z,23.87
2023-04-23T02:06:48.696Z,23.86
2023-04-23T02:07:48.687Z,23.86
2023-04-23T02:08:48.697Z,23.85
2023-04-23T02:09:48.714Z,23.85
2023-04-23T02:10:48.751Z,23.85
2023-04-23T02:11:48.736Z,23.86
2023-04-23T02:12:48.825Z,23.85
2023-04-23T02:13:48.750Z,23.85
2023-04-23T02:14:48.747Z,23.84
2023-04-23T02:15:48.821Z,23.85
2023-04-23T02:16:48.784Z,23.84
2023-04-23T02:17:48.831Z,23.84
2023-04-23T02:18:48.801Z,23.84
2023-04-23T02:19:48.819Z,23.84
2023-04-23T02:20:48.808Z,23.84
2023-04-23T02:21:48.842Z,23.83
2023-04-23T02:22:48.876Z,23.83
2023-04-23T02:23:48.838Z,23.83
2023-04-23T02:24:48.869Z,23.83
2023-04-23T02:25:48.859Z,23.83
2023-04-23T02:26:48.889Z,23.83
2023-04-23T02:27:48.908Z,23.83
2023-04-23T02:28:48.906Z,23.82
2023-04-23T02:29:48.931Z,23.82
2023-04-23T02:30:48.938Z,23.82
2023-04-23T02:31:48.967Z,23.82
2023-04-23T02:32:49.025Z,23.83
2023-04-23T02:33:48.959Z,23.82
2023-04-23T02:34:48.961Z,23.83
2023-04-23T02:35:48.989Z,23.83
2023-04-23T02:36:48.983Z,23.82
2023-04-23T02:37:49.010Z,23.82
2023-04-23T02:38:49.061Z,23.82
2023-04-23T02:39:49.032Z,23.81
2023-04-23T02:40:49.053Z,23.81
2023-04-23T02:41:49.067Z,23.81
2023-04-23T02:42:49.094Z,23.80
2023-04-23T02:43:49.093Z,23.81
2023-04-23T02:44:49.089Z,23.81
2023-04-23T02:45:49.100Z,23.80
2023-04-23T02:46:49.158Z,23.79
2023-04-23T02:47:49.199Z,23.79
2023-04-23T02:48:49.123Z,23.80
2023-04-23T02:49:49.154Z,23.80
2023-04-23T02:50:49.153Z,23.80
2023-04-23T02:51:49.171Z,23.79
2023-04-23T02:52:49.174Z,23.79
2023-04-23T02:53:49.181Z,23.79
2023-04-23T02:54:49.181Z,23.79
2023-04-23T02:55:49.208Z,23.79
2023-04-23T02:56:49.205Z,23.79
2023-04-23T02:57:49.244Z,23.78
2023-04-23T02:58:49.251Z,23.79
2023-04-23T02:59:49.252Z,23.78
2023-04-23T03:00:49.325Z,23.79
2023-04-23T03:01:49.251Z,23.78
2023-04-23T03:02:49.395Z,23.79
2023-04-23T03:03:49.481Z,23.80
2023-04-23T03:04:49.291Z,23.78
2023-04-23T03:05:49.326Z,23.79
2023-04-23T03:06:49.314Z,23.78
2023-04-23T03:07:49.361Z,23.78
2023-04-23T03:08:49.330Z,23.78
2023-04-23T03:09:49.339Z,23.80
2023-04-23T03:10:49.352Z,23.80
2023-04-23T03:11:49.359Z,23.79
2023-04-23T03:12:49.393Z,23.81
2023-04-23T03:13:49.397Z,23.81
2023-04-23T03:14:49.390Z,23.81
2023-04-23T03:15:49.413Z,23.81
2023-04-23T03:16:49.432Z,23.83
2023-04-23T03:17:49.448Z,23.83
2023-04-23T03:18:49.432Z,23.83
2023-04-23T03:19:49.417Z,23.83
2023-04-23T03:20:49.426Z,23.84
2023-04-23T03:21:49.448Z,23.85
2023-04-23T03:22:49.446Z,23.86
2023-04-23T03:23:49.441Z,23.86
2023-04-23T03:24:49.457Z,23.87
2023-04-23T03:25:49.466Z,23.87
2023-04-23T03:26:49.453Z,23.87
2023-04-23T03:27:49.461Z,23.88
2023-04-23T03:28:49.466Z,23.88
2023-04-23T03:29:49.470Z,23.89
2023-04-23T03:30:49.593Z,23.90
2023-04-23T03:31:49.465Z,23.90
2023-04-23T03:32:49.527Z,23.90
2023-04-23T03:33:49.482Z,23.91
2023-04-23T03:34:49.479Z,23.91
2023-04-23T03:35:49.468Z,23.91
2023-04-23T03:36:49.462Z,23.92
2023-04-23T03:37:49.477Z,23.92
2023-04-23T03:38:49.451Z,23.92
2023-04-23T03:39:49.460Z,23.93
2023-04-23T03:40:49.476Z,23.93
2023-04-23T03:41:49.480Z,23.94
2023-04-23T03:42:49.479Z,23.94
2023-04-23T03:43:49.456Z,23.94
2023-04-23T03:44:49.460Z,23.95
2023-04-23T03:45:49.518Z,23.96
2023-04-23T03:46:49.452Z,23.95
2023-04-23T03:47:49.541Z,23.95
2023-04-23T03:48:49.470Z,23.96
2023-04-23T03:49:49.451Z,23.96
2023-04-23T03:50:49.456Z,23.97
2023-04-23T03:51:49.452Z,23.97
2023-04-23T03:52:49.455Z,23.97
2023-04-23T03:53:49.466Z,23.97
2023-04-23T03:54:49.459Z,23.98
2023-04-23T03:55:49.468Z,23.98
2023-04-23T03:56:49.450Z,23.98
2023-04-23T03:57:49.438Z,23.98
2023-04-23T03:58:49.457Z,23.98
2023-04-23T03:59:49.427Z,23.99
2023-04-23T04:00:49.444Z,23.99
2023-04-23T04:01:49.424Z,23.99
2023-04-23T04:02:49.568Z,24.01
2023-04-23T04:03:49.606Z,24.00
2023-04-23T04:04:49.632Z,23.99
2023-04-23T04:05:49.524Z,24.00
2023-04-23T04:06:49.407Z,24.01
2023-04-23T04:07:49.414Z,24.01
2023-04-23T04:08:49.438Z,24.01
2023-04-23T04:09:49.468Z,24.00
2023-04-23T04:10:49.451Z,24.01
2023-04-23T04:11:49.770Z,24.01
2023-04-23T04:12:49.461Z,24.01
2023-04-23T04:13:49.455Z,24.02
2023-04-23T04:14:49.439Z,24.01
2023-04-23T04:15:49.504Z,24.02
2023-04-23T04:16:49.427Z,24.01
2023-04-23T04:17:49.476Z,24.02
2023-04-23T04:18:49.437Z,24.02
2023-04-23T04:19:49.439Z,24.01
2023-04-23T04:20:49.425Z,24.02
2023-04-23T04:21:49.427Z,24.02
2023-04-23T04:22:49.445Z,24.02
2023-04-23T04:23:49.443Z,24.02
2023-04-23T04:24:49.463Z,24.02
2023-04-23T04:25:49.425Z,24.03
2023-04-23T04:26:49.432Z,24.03
2023-04-23T04:27:49.437Z,24.03
2023-04-23T04:28:49.425Z,24.03
2023-04-23T04:29:49.411Z,24.03
2023-04-23T04:30:49.400Z,24.03
2023-04-23T04:31:49.438Z,24.03
2023-04-23T04:32:49.416Z,24.03
2023-04-23T04:33:49.414Z,24.04
2023-04-23T04:34:49.396Z,24.03
2023-04-23T04:35:49.402Z,24.04
2023-04-23T04:36:49.420Z,24.05
2023-04-23T04:37:49.455Z,24.04
2023-04-23T04:38:49.516Z,24.04
2023-04-23T04:39:49.551Z,24.04
2023-04-23T04:40:49.597Z,24.05
2023-04-23T04:41:49.623Z,24.04
2023-04-23T04:42:49.684Z,24.06
2023-04-23T04:43:49.740Z,24.05
2023-04-23T04:44:49.765Z,24.05
2023-04-23T04:45:49.769Z,24.05
2023-04-23T04:46:49.829Z,24.06
2023-04-23T04:47:49.807Z,24.06
2023-04-23T04:48:49.768Z,24.06
2023-04-23T04:49:49.792Z,24.07
2023-04-23T04:50:49.768Z,24.07
2023-04-23T04:51:49.778Z,24.07
2023-04-23T04:52:49.785Z,24.06
2023-04-23T04:53:49.808Z,24.07
2023-04-23T04:54:49.832Z,24.06
2023-04-23T04:55:49.835Z,24.08
2023-04-23T04:56:49.856Z,24.08
2023-04-23T04:57:49.874Z,24.08
2023-04-23T04:58:49.866Z,24.07
2023-04-23T04:59:49.867Z,24.08
2023-04-23T05:00:49.848Z,24.08
2023-04-23T05:01:49.860Z,24.08
2023-04-23T05:02:49.918Z,24.08
2023-04-23T05:03:50.091Z,24.09
2023-04-23T05:04:49.873Z,24.09
2023-04-23T05:05:49.839Z,24.09
2023-04-23T05:06:49.841Z,24.09
2023-04-23T05:07:49.837Z,24.09
2023-04-23T05:08:49.865Z,24.09
2023-04-23T05:09:49.866Z,24.10
2023-04-23T05:10:49.849Z,24.09
2023-04-23T05:11:49.863Z,24.10
2023-04-23T05:12:49.870Z,24.11
2023-04-23T05:13:49.886Z,24.10
2023-04-23T05:14:50.550Z,24.11
2023-04-23T05:15:49.922Z,24.11
2023-04-23T05:16:49.952Z,24.11
2023-04-23T05:17:49.957Z,24.11
2023-04-23T05:18:49.929Z,24.12
2023-04-23T05:19:49.931Z,24.11
2023-04-23T05:20:49.967Z,24.11
2023-04-23T05:21:49.971Z,24.12
2023-04-23T05:22:49.985Z,24.12
2023-04-23T05:23:50.034Z,24.12
2023-04-23T05:24:50.050Z,24.12
2023-04-23T05:25:50.436Z,24.12
2023-04-23T05:26:50.086Z,24.13
2023-04-23T05:27:50.121Z,24.12
2023-04-23T05:28:50.156Z,24.13
2023-04-23T05:29:50.171Z,24.14
2023-04-23T05:30:50.202Z,24.13
2023-04-23T05:31:50.367Z,24.13
2023-04-23T05:32:50.298Z,24.13
2023-04-23T05:33:50.937Z,24.14
2023-04-23T05:34:50.351Z,24.14
2023-04-23T05:35:50.376Z,24.14
2023-04-23T05:36:50.442Z,24.14
2023-04-23T05:37:50.480Z,24.15
2023-04-23T05:38:50.571Z,24.15
2023-04-23T05:39:50.577Z,24.15
2023-04-23T05:40:50.610Z,24.16
2023-04-23T05:41:50.632Z,24.16
2023-04-23T05:42:50.664Z,24.16
2023-04-23T05:43:50.712Z,24.17
2023-04-23T05:44:50.768Z,24.16
2023-04-23T05:45:50.795Z,24.17
2023-04-23T05:46:50.807Z,24.17
2023-04-23T05:47:50.879Z,24.17
2023-04-23T05:48:50.909Z,24.18
2023-04-23T05:49:50.963Z,24.18
2023-04-23T05:50:51.006Z,24.18
2023-04-23T05:51:51.047Z,24.18
2023-04-23T05:52:51.102Z,24.18
2023-04-23T05:53:51.142Z,24.18
2023-04-23T05:54:51.209Z,24.18
2023-04-23T05:55:51.255Z,24.19
2023-04-23T05:56:52.816Z,24.19
2023-04-23T05:57:51.330Z,24.20
2023-04-23T05:58:51.299Z,24.19
2023-04-23T05:59:51.290Z,24.19
2023-04-23T06:00:51.283Z,24.20
2023-04-23T06:01:51.273Z,24.20
2023-04-23T06:02:51.403Z,24.20
2023-04-23T06:03:51.501Z,24.20
2023-04-23T06:04:51.446Z,24.20
2023-04-23T06:05:51.339Z,24.21
2023-04-23T06:06:51.245Z,24.21
2023-04-23T06:07:51.232Z,24.21
2023-04-23T06:08:51.242Z,24.21
2023-04-23T06:09:51.238Z,24.22
2023-04-23T06:10:51.213Z,24.21
2023-04-23T06:11:51.218Z,24.22
2023-04-23T06:12:51.198Z,24.22
2023-04-23T06:13:51.197Z,24.22
2023-04-23T06:14:51.200Z,24.23
2023-04-23T06:15:51.226Z,24.23
2023-04-23T06:16:51.185Z,24.24
2023-04-23T06:17:51.184Z,24.24
2023-04-23T06:18:51.171Z,24.24
2023-04-23T06:19:51.150Z,24.24
2023-04-23T06:20:51.162Z,24.24
2023-04-23T06:21:51.144Z,24.25
2023-04-23T06:22:51.135Z,24.26
2023-04-23T06:23:51.139Z,24.26
2023-04-23T06:24:51.136Z,24.26
2023-04-23T06:25:51.114Z,24.27
2023-04-23T06:26:51.109Z,24.26
2023-04-23T06:27:51.123Z,24.27
2023-04-23T06:28:51.097Z,24.27
2023-04-23T06:29:51.099Z,24.27
2023-04-23T06:30:51.098Z,24.28
2023-04-23T06:31:51.200Z,24.28
2023-04-23T06:32:51.173Z,24.29
2023-04-23T06:33:51.087Z,24.29
2023-04-23T06:35:00.163Z,24.29
2023-04-23T06:35:52.056Z,24.29
2023-04-23T06:36:51.068Z,24.30
2023-04-23T06:37:51.038Z,24.30
2023-04-23T06:38:51.036Z,24.30
2023-04-23T06:39:51.017Z,24.30
2023-04-23T06:40:51.036Z,24.31
2023-04-23T06:41:51.026Z,24.31
2023-04-23T06:42:51.033Z,24.32
2023-04-23T06:43:51.039Z,24.32
2023-04-23T06:44:51.074Z,24.32
2023-04-23T06:45:51.153Z,24.33
2023-04-23T06:46:51.241Z,24.33
2023-04-23T06:47:51.298Z,24.33
2023-04-23T06:48:51.334Z,24.34
2023-04-23T06:49:51.384Z,24.34
2023-04-23T06:50:51.450Z,24.34
2023-04-23T06:51:51.536Z,24.35
2023-04-23T06:52:51.572Z,24.35
2023-04-23T06:53:51.624Z,24.35
2023-04-23T06:54:51.688Z,24.36
2023-04-23T06:55:51.767Z,24.36
2023-04-23T06:56:51.804Z,24.37
2023-04-23T06:57:51.879Z,24.37
2023-04-23T06:58:51.942Z,24.37
2023-04-23T06:59:51.985Z,24.38
2023-04-23T07:00:52.075Z,24.38
2023-04-23T07:01:52.095Z,24.39
2023-04-23T07:02:52.266Z,24.40
2023-04-23T07:03:52.203Z,24.39
2023-04-23T07:04:52.256Z,24.40
2023-04-23T07:05:52.329Z,24.41
2023-04-23T07:06:52.531Z,24.42
2023-04-23T07:07:52.448Z,24.42
2023-04-23T07:08:52.534Z,24.42
2023-04-23T07:09:52.585Z,24.43
2023-04-23T07:10:52.654Z,24.44
2023-04-23T07:11:52.740Z,24.45
2023-04-23T07:12:52.765Z,24.45
2023-04-23T07:13:52.848Z,24.46
2023-04-23T07:14:52.904Z,24.47
2023-04-23T07:15:52.953Z,24.48
2023-04-23T07:16:53.052Z,24.48
2023-04-23T07:17:53.176Z,24.48
2023-04-23T07:18:53.148Z,24.50
2023-04-23T07:19:53.196Z,24.51
2023-04-23T07:20:53.245Z,24.52
2023-04-23T07:21:53.327Z,24.52
2023-04-23T07:22:53.369Z,24.54
2023-04-23T07:23:53.437Z,24.56
2023-04-23T07:24:53.496Z,24.56
2023-04-23T07:25:53.519Z,24.58
2023-04-23T07:26:53.584Z,24.60
2023-04-23T07:27:53.626Z,24.61
2023-04-23T07:28:53.681Z,24.63
2023-04-23T07:29:53.726Z,24.64
2023-04-23T07:30:53.751Z,24.67
2023-04-23T07:31:53.821Z,24.69
2023-04-23T07:32:53.909Z,24.71
2023-04-23T07:33:53.902Z,24.74
2023-04-23T07:34:53.957Z,24.76
2023-04-23T07:35:54.149Z,24.78
2023-04-23T07:36:54.010Z,24.82
2023-04-23T07:37:54.041Z,24.85
2023-04-23T07:38:54.082Z,24.88
2023-04-23T07:39:54.123Z,24.91
2023-04-23T07:40:54.136Z,24.94
2023-04-23T07:41:54.143Z,24.98
2023-04-23T07:42:54.176Z,25.01
2023-04-23T07:43:54.184Z,25.04
2023-04-23T07:44:54.199Z,25.07
2023-04-23T07:45:54.280Z,25.11
2023-04-23T07:46:54.250Z,25.15
2023-04-23T07:47:54.310Z,25.19
2023-04-23T07:48:54.265Z,25.22
2023-04-23T07:49:54.266Z,25.25
2023-04-23T07:50:54.272Z,25.30
2023-04-23T07:51:54.295Z,25.34
2023-04-23T07:52:54.292Z,25.38
2023-04-23T07:53:54.301Z,25.41
2023-04-23T07:54:54.305Z,25.43
2023-04-23T07:55:54.282Z,25.47
2023-04-23T07:56:54.286Z,25.51
2023-04-23T07:57:54.281Z,25.54
2023-04-23T07:58:54.383Z,25.57
2023-04-23T07:59:54.276Z,25.62
2023-04-23T08:00:54.336Z,25.64
2023-04-23T08:01:54.328Z,25.67
2023-04-23T08:02:54.490Z,25.69
2023-04-23T08:03:56.730Z,25.71
2023-04-23T08:04:54.800Z,25.74
2023-04-23T08:05:54.404Z,25.76
2023-04-23T08:06:54.401Z,25.78
2023-04-23T08:07:54.408Z,25.81
2023-04-23T08:08:54.461Z,25.83
2023-04-23T08:09:54.392Z,25.86
2023-04-23T08:10:54.393Z,25.88
2023-04-23T08:11:54.394Z,25.90
2023-04-23T08:12:54.382Z,25.92
2023-04-23T08:13:54.355Z,25.95
2023-04-23T08:14:54.354Z,25.98
2023-04-23T08:15:54.412Z,26.00
2023-04-23T08:16:54.327Z,26.02
2023-04-23T08:17:54.392Z,26.05
2023-04-23T08:19:04.969Z,26.07
2023-04-23T08:19:55.311Z,26.10
2023-04-23T08:20:54.330Z,26.11
2023-04-23T08:21:54.325Z,26.15
2023-04-23T08:22:54.306Z,26.17
2023-04-23T08:23:54.287Z,26.21
2023-04-23T08:24:54.292Z,26.24
2023-04-23T08:25:54.295Z,26.26
2023-04-23T08:26:54.292Z,26.28
2023-04-23T08:27:54.272Z,26.30
2023-04-23T08:28:54.266Z,26.32
2023-04-23T08:29:54.261Z,26.35
2023-04-23T08:30:54.252Z,26.37
2023-04-23T08:31:54.302Z,26.39
2023-04-23T08:32:54.408Z,26.40
2023-04-23T08:33:54.312Z,26.41
2023-04-23T08:34:54.321Z,26.43
2023-04-23T08:35:54.325Z,26.44
2023-04-23T08:36:54.345Z,26.46
2023-04-23T08:37:54.377Z,26.49
2023-04-23T08:38:54.382Z,26.52
2023-04-23T08:39:54.396Z,26.53
2023-04-23T08:40:54.428Z,26.56
2023-04-23T08:41:54.442Z,26.59
2023-04-23T08:42:54.432Z,26.60
2023-04-23T08:43:54.456Z,26.62
2023-04-23T08:44:54.456Z,26.62
2023-04-23T08:45:54.454Z,26.63
2023-04-23T08:46:54.550Z,26.66
2023-04-23T08:47:54.520Z,26.66
2023-04-23T08:48:54.474Z,26.66
2023-04-23T08:49:54.484Z,26.69
2023-04-23T08:50:54.501Z,26.70
2023-04-23T08:51:54.487Z,26.70
2023-04-23T08:52:54.507Z,26.71
2023-04-23T08:53:54.491Z,26.73
2023-04-23T08:54:54.491Z,26.75
2023-04-23T08:55:54.515Z,26.77
2023-04-23T08:56:54.494Z,26.78
2023-04-23T08:57:54.491Z,26.79
2023-04-23T08:58:56.927Z,26.80
2023-04-23T08:59:54.634Z,26.80
2023-04-23T09:00:54.698Z,26.82
2023-04-23T09:01:54.690Z,26.83
2023-04-23T09:02:54.884Z,26.85
2023-04-23T09:03:54.767Z,26.85
2023-04-23T09:04:56.135Z,26.85
2023-04-23T09:05:54.620Z,26.86
2023-04-23T09:06:54.634Z,26.87
2023-04-23T09:07:54.625Z,26.87
2023-04-23T09:08:54.619Z,26.88
2023-04-23T09:09:54.620Z,26.88
2023-04-23T09:10:54.621Z,26.89
2023-04-23T09:11:55.154Z,26.90
2023-04-23T09:12:54.619Z,26.89
2023-04-23T09:13:54.633Z,26.90
2023-04-23T09:14:54.636Z,26.89
2023-04-23T09:15:54.640Z,26.90
2023-04-23T09:16:54.712Z,26.90
2023-04-23T09:17:54.706Z,26.91
2023-04-23T09:18:54.636Z,26.93
2023-04-23T09:19:54.620Z,26.94
2023-04-23T09:20:54.634Z,26.94
2023-04-23T09:21:54.625Z,26.95
2023-04-23T09:22:54.628Z,26.95
2023-04-23T09:23:54.607Z,26.96
2023-04-23T09:24:54.629Z,26.98
2023-04-23T09:25:54.612Z,26.97
2023-04-23T09:26:54.605Z,26.98
2023-04-23T09:27:54.589Z,26.98
2023-04-23T09:28:54.594Z,27.00
2023-04-23T09:29:54.584Z,27.00
2023-04-23T09:30:54.582Z,27.00
2023-04-23T09:31:54.605Z,27.01
2023-04-23T09:32:54.714Z,27.02
2023-04-23T09:33:54.559Z,27.02
2023-04-23T09:34:54.533Z,27.03
2023-04-23T09:35:54.566Z,27.03
2023-04-23T09:36:54.525Z,27.03
2023-04-23T09:37:54.520Z,27.03
2023-04-23T09:38:54.535Z,27.02
2023-04-23T09:39:54.510Z,27.01
2023-04-23T09:40:54.687Z,27.02
2023-04-23T09:41:54.563Z,27.04
2023-04-23T09:42:54.701Z,27.05
2023-04-23T09:43:54.489Z,27.05
2023-04-23T09:44:54.490Z,27.05
2023-04-23T09:45:54.582Z,27.04
2023-04-23T09:46:54.465Z,27.05
2023-04-23T09:47:54.603Z,27.07
2023-04-23T09:48:54.459Z,27.09
2023-04-23T09:49:54.451Z,27.10
2023-04-23T09:50:54.456Z,27.11
2023-04-23T09:51:54.444Z,27.11
2023-04-23T09:52:54.435Z,27.13
2023-04-23T09:53:54.428Z,27.12
2023-04-23T09:54:54.416Z,27.12
2023-04-23T09:55:54.425Z,27.10
2023-04-23T09:56:54.413Z,27.10
2023-04-23T09:57:54.416Z,27.09
2023-04-23T09:58:54.408Z,27.08
2023-04-23T10:00:03.338Z,27.08
2023-04-23T10:00:55.385Z,27.08
2023-04-23T10:01:54.382Z,27.10
2023-04-23T10:02:54.538Z,27.11
2023-04-23T10:03:54.449Z,27.08
2023-04-23T10:06:01.031Z,27.05
2023-04-23T10:07:07.529Z,27.04
2023-04-23T10:07:55.344Z,27.03
2023-04-23T10:08:54.327Z,27.03
2023-04-23T10:09:54.322Z,27.02
2023-04-23T10:11:06.625Z,27.01
2023-04-23T10:11:55.299Z,27.00
2023-04-23T10:12:55.549Z,27.00
2023-04-23T10:13:54.306Z,26.99
2023-04-23T10:14:54.293Z,26.96
2023-04-23T10:15:54.332Z,26.94
2023-04-23T10:16:54.295Z,26.93
2023-04-23T10:17:54.331Z,26.92
2023-04-23T10:18:54.272Z,26.91
2023-04-23T10:19:54.248Z,26.90
2023-04-23T10:20:54.253Z,26.88
2023-04-23T10:22:00.001Z,26.86
2023-04-23T10:22:55.251Z,26.85
2023-04-23T10:23:54.226Z,26.84
2023-04-23T10:24:54.219Z,26.82
2023-04-23T10:25:54.225Z,26.82
2023-04-23T10:26:54.205Z,26.81
2023-04-23T10:27:54.804Z,26.81
2023-04-23T10:28:54.218Z,26.80
2023-04-23T10:29:54.194Z,26.78
2023-04-23T10:30:54.208Z,26.75
2023-04-23T10:31:54.183Z,26.74
2023-04-23T10:32:54.262Z,26.73
2023-04-23T10:33:59.228Z,26.72
2023-04-23T10:34:55.168Z,26.71
2023-04-23T10:35:54.151Z,26.70
2023-04-23T10:36:54.163Z,26.73
2023-04-23T10:37:54.155Z,26.74
2023-04-23T10:38:58.300Z,26.75
2023-04-23T10:39:55.157Z,26.76
2023-04-23T10:40:54.130Z,26.77
2023-04-23T10:41:54.116Z,26.78
2023-04-23T10:42:54.111Z,26.75
2023-04-23T10:43:54.126Z,26.75
2023-04-23T10:44:59.577Z,26.74
2023-04-23T10:45:55.110Z,26.74
2023-04-23T10:46:54.158Z,26.72
2023-04-23T10:47:54.128Z,26.72
2023-04-23T10:48:54.069Z,26.71
2023-04-23T10:49:54.083Z,26.72
2023-04-23T10:51:09.809Z,26.71
2023-04-23T10:52:54.094Z,26.73
2023-04-23T10:53:54.061Z,26.73
2023-04-23T10:54:54.031Z,26.74
2023-04-23T10:55:54.037Z,26.75
2023-04-23T10:56:54.045Z,26.77
2023-04-23T10:57:54.012Z,26.79
2023-04-23T10:58:54.024Z,26.80
2023-04-23T10:59:54.014Z,26.81
2023-04-23T11:00:53.996Z,26.82
2023-04-23T11:01:54.030Z,26.82
2023-04-23T11:02:54.079Z,26.82
2023-04-23T11:03:54.126Z,26.82
2023-04-23T11:04:53.996Z,26.82
2023-04-23T11:05:53.969Z,26.84
2023-04-23T11:06:53.973Z,26.83
2023-04-23T11:07:53.958Z,26.85
2023-04-23T11:08:54.218Z,26.82
2023-04-23T11:09:53.954Z,26.81
2023-04-23T11:10:53.930Z,26.81
2023-04-23T11:11:53.930Z,26.82
2023-04-23T11:12:53.921Z,26.82
2023-04-23T11:13:53.930Z,26.82
2023-04-23T11:14:53.934Z,26.83
2023-04-23T11:15:53.920Z,26.83
2023-04-23T11:16:53.944Z,26.82
2023-04-23T11:17:53.941Z,26.82
2023-04-23T11:18:53.911Z,26.83
2023-04-23T11:19:53.901Z,26.84
2023-04-23T11:20:53.880Z,26.85
2023-04-23T11:21:53.888Z,26.84
2023-04-23T11:22:53.868Z,26.84
2023-04-23T11:23:53.865Z,26.84
2023-04-23T11:24:53.895Z,26.84
2023-04-23T11:25:53.840Z,26.85
2023-04-23T11:26:53.842Z,26.85
2023-04-23T11:27:53.850Z,26.86
2023-04-23T11:28:53.844Z,26.86
2023-04-23T11:29:53.842Z,26.85
2023-04-23T11:30:53.843Z,26.85
2023-04-23T11:32:01.543Z,26.85
2023-04-23T11:32:54.944Z,26.86
2023-04-23T11:33:53.809Z,26.84
2023-04-23T11:34:53.816Z,26.85
2023-04-23T11:35:53.812Z,26.85
2023-04-23T11:36:53.811Z,26.84
2023-04-23T11:37:53.805Z,26.84
2023-04-23T11:38:53.800Z,26.85
2023-04-23T11:39:53.782Z,26.83
2023-04-23T11:40:53.782Z,26.82
2023-04-23T11:41:54.002Z,26.80
2023-04-23T11:42:53.775Z,26.79
2023-04-23T11:43:53.762Z,26.77
2023-04-23T11:44:53.758Z,26.75
2023-04-23T11:45:53.758Z,26.74
2023-04-23T11:46:53.731Z,26.72
2023-04-23T11:47:53.770Z,26.71
2023-04-23T11:48:53.730Z,26.70
2023-04-23T11:49:53.739Z,26.70
2023-04-23T11:50:53.758Z,26.70
2023-04-23T11:51:53.718Z,26.67
2023-04-23T11:52:53.697Z,26.66
2023-04-23T11:53:53.712Z,26.64
2023-04-23T11:54:53.699Z,26.63
2023-04-23T11:55:53.693Z,26.62
2023-04-23T11:56:53.694Z,26.62
2023-04-23T11:57:53.683Z,26.62
2023-04-23T11:58:53.667Z,26.62
2023-04-23T11:59:53.660Z,26.63
2023-04-23T12:00:53.662Z,26.61
2023-04-23T12:01:53.654Z,26.60
2023-04-23T12:02:53.822Z,26.59
2023-04-23T12:03:53.766Z,26.59
2023-04-23T12:04:53.659Z,26.58
2023-04-23T12:05:53.615Z,26.58
2023-04-23T12:06:53.610Z,26.56
2023-04-23T12:07:53.609Z,26.55
2023-04-23T12:08:53.619Z,26.54
2023-04-23T12:09:53.613Z,26.53
2023-04-23T12:10:53.600Z,26.53
2023-04-23T12:11:53.575Z,26.51
2023-04-23T12:12:53.578Z,26.50
2023-04-23T12:13:53.584Z,26.49
2023-04-23T12:14:53.625Z,26.50
2023-04-23T12:15:53.667Z,26.48
2023-04-23T12:16:53.676Z,26.46
2023-04-23T12:17:53.719Z,26.45
2023-04-23T12:18:53.700Z,26.44
2023-04-23T12:19:53.741Z,26.44
2023-04-23T12:20:53.772Z,26.43
2023-04-23T12:21:53.808Z,26.41
2023-04-23T12:22:53.828Z,26.41
2023-04-23T12:23:53.859Z,26.40
2023-04-23T12:24:53.889Z,26.39
2023-04-23T12:25:53.896Z,26.39
2023-04-23T12:26:53.941Z,26.39
2023-04-23T12:27:53.964Z,26.38
2023-04-23T12:28:53.983Z,26.38
2023-04-23T12:29:54.008Z,26.38
2023-04-23T12:30:54.146Z,26.37
2023-04-23T12:31:54.120Z,26.37
2023-04-23T12:32:54.123Z,26.36
2023-04-23T12:33:54.102Z,26.36
2023-04-23T12:34:54.134Z,26.36
2023-04-23T12:35:54.166Z,26.36
2023-04-23T12:36:54.196Z,26.36
2023-04-23T12:37:54.225Z,26.35
2023-04-23T12:38:54.255Z,26.34
2023-04-23T12:39:54.289Z,26.34
2023-04-23T12:40:54.319Z,26.34
2023-04-23T12:41:54.349Z,26.33
2023-04-23T12:42:54.360Z,26.32
2023-04-23T12:43:54.398Z,26.32
2023-04-23T12:44:54.433Z,26.30
2023-04-23T12:45:54.459Z,26.30
2023-04-23T12:46:57.066Z,26.29
2023-04-23T12:47:54.514Z,26.29
2023-04-23T12:48:54.473Z,26.27
2023-04-23T12:49:54.475Z,26.27
2023-04-23T12:50:54.481Z,26.27
2023-04-23T12:51:54.465Z,26.26
2023-04-23T12:52:54.479Z,26.26
2023-04-23T12:53:54.470Z,26.24
2023-04-23T12:54:54.436Z,26.23